Carterville, Mississippi
Current Conditions -  °F | °C
As of 9:53 AM on Saturday 22 Nov 2014 (Local Time) from KHBG Reporting Station
Clear Clear  
Wind Chill: 61°   Ceiling: Unl
Heat Index: 61°   Visibility: 10mi
Dew Point: 41°   Wind: 12mph
Humidity: 48%   Direction: 120°ESE
Pressure: 30.27"   Gusts: NA
Location:  31.1996°N, 89.2694°W
Report Text: KHBG 221553Z AUTO 12010KT 10SM CLR 16/05 A3027 RMK AO2 SLP249 T01610050
Loading
Personal Weather Stations






























Interactive Weather Map New forecast layout! Learn more

10-Day Weather Forecast

Advertisements
Track Severe Weather on mobile